Aérodrome :
LOGIN :

S'inscrire | Disclaimer

   EN    FR    IT 

 










Légende :    VFR   VFR Marginal   IFR   IFR Intensif   IFR Très Intensif
Visi : 
Plafond : 
>= 8 km
>= 3000ft
5 à 8 km
1000 à 3000 ft
1500m à 5 km
500 à 1000 ft
800 à 1500m
200 à 500 ft
< 800m
< 200 ft
Symboles :   Orages  Brouillard  Fortes neiges  Fortes précipitations  Vent > 20 kt
SIGMETs :   Divers  Orages  Givrage  Turbulence  Onde Orograph.  Cendres Volcan.






- Altitude de l'aérodrome : 245 ft
- Code IATA : BIQ


LFBZ - Biarritz

DERNIER METAR :
  • 210700Z AUTO 14002KT 9999 BKN021 OVC040 09/08 Q1032 TEMPO 28010KT BKN012

METARs EXPIRÉS :
  • 210630Z AUTO 24002KT 9999 SCT020 OVC041 09/07 Q1031 TEMPO BKN012
  • 210600Z AUTO 20002KT 9999 FEW021 OVC039 09/07 Q1031 TEMPO 4000 -RADZ BKN012 BECMG 28010KT
  • 210530Z AUTO VRB01KT 9999 SCT021 OVC038 09/07 Q1031 TEMPO 4000 -RADZ BKN007
  • 210500Z AUTO 21002KT 9999 FEW022 OVC039 09/07 Q1031 TEMPO 4000 -RADZ BKN007

TAF TAF LFBZ
Valide du 21 à 06h jusqu'au 22 à 06h UTC


210500Z 2106/2206 28010KT 9999 BKN025
PROB40
TEMPO 2106/2107 4000 -RADZ BKN007
TEMPO 2107/2111 BKN012
BECMG 2108/2110 09006KT
BECMG 2114/2116 CAVOK



MET'MAP, la Météo Aéronautique d'un coup d'oeil ! - Copyright ORBIFLY Décembre 2007 - Disclaimer

ORBIFLY MET'MAP TEAM :

Programmation & Développement : Alexandra Zaïnal
Sur une idée originale de : Baudouin d'Aumeries
Assistance à la programmation : Marc-Olivier Méhu
Soutien technique & logistique : Manuel Goepfert

Contact : metmap@orbifly.com




SOURCES & CREDITS :

   NOAA